Česky Dansk Deutsch English Español Suomi Français Magyar Italiano Nederlands norsk Polski Português svenska Türkçe

 

Het Weer

Oslo / Fornebu (Noorwegen)

21:50, 19 augustus 2016 (GMT)

NWNNE
WE
SWSSE
Home            
Oslo / Fornebu Oslo / Gardermoen Rygge Oseberg Torp Notodden Skien-Geiteryggen Dagali Fagernes Leirin Karlstad Karlstad Flygplats Satenas Trollhattan Private Sogndal / Haukasen Kristiansand / Kjevik Voss-Bo Siljan / Mora Goteborg / Save Skovde Flygplats Orebro Private Goteborg / Landvetter Sindal Flyveplads Borlange

Om een weerknop op uw website of weblog te plaatsen, copieer onderstaande code en plak die in uw pagina. In het eerste vakje staat HTML-code, in het tweede vakje UBB-code.


Add to Google

Details

Wind speed:3 bf, 7 kn, 3.6 m/s, 8.1 miles/h, 13.0 km/h
Wind direction:SE, 130°
Clouds:Durchbrochene Bewölkung at 1800 ft, 549 m
Temperature:13°C, 55°F
Dew-point:10°C, 50°F
Atmospheric pressure:1011 hPa, 758.3 mmHg, 29.85 inHg, 0.998 atm
Relative humidity:82.0 %
METAR:ENFB 192150Z AUTO 13007KT 9999NDV BKN018 13/10 Q1011 WS3

Snelkoppelingen

Actuele weersinformatie van de hele wereld. Voeg locaties toe met het plus (+) symbool. Deze snelkoppelingen kunnen worden toegevoegd aan Google.

Lid van de Technetium groep

website free tracking
StatCounter NetStat W3C Validator

01-07-2022 06:38:00
astro.technetium.be money.technetium.be phote.technetium.be tafeltennistafel.technetium.be www.ligfiets.net